sensor_id;sensor_type;location;lat;lon;timestamp;P1;durP1;ratioP1;P2;durP2;ratioP2
23838;SDS011;12100;44.384;20.272;2022-08-04T00:02:51;7.10;;;4.18;;
23838;SDS011;12100;44.384;20.272;2022-08-04T00:08:19;6.25;;;4.47;;
23838;SDS011;12100;44.384;20.272;2022-08-04T00:10:49;10.25;;;4.75;;
23838;SDS011;12100;44.384;20.272;2022-08-04T00:13:21;8.15;;;4.30;;
23838;SDS011;12100;44.384;20.272;2022-08-04T00:15:51;6.60;;;4.50;;
23838;SDS011;12100;44.384;20.272;2022-08-04T00:18:19;9.35;;;4.85;;
23838;SDS011;12100;44.384;20.272;2022-08-04T00:20:59;11.27;;;4.53;;
23838;SDS011;12100;44.384;20.272;2022-08-04T00:23:32;7.22;;;3.90;;
23838;SDS011;12100;44.384;20.272;2022-08-04T00:25:59;8.90;;;4.28;;
23838;SDS011;12100;44.384;20.272;2022-08-04T00:28:26;6.45;;;3.70;;
23838;SDS011;12100;44.384;20.272;2022-08-04T00:30:53;5.68;;;4.45;;
23838;SDS011;12100;44.384;20.272;2022-08-04T00:33:19;4.65;;;4.25;;
23838;SDS011;12100;44.384;20.272;2022-08-04T00:35:49;9.63;;;4.82;;
23838;SDS011;12100;44.384;20.272;2022-08-04T00:38:15;9.18;;;4.97;;
23838;SDS011;12100;44.384;20.272;2022-08-04T00:40:46;9.98;;;5.05;;
23838;SDS011;12100;44.384;20.272;2022-08-04T00:49:27;4.72;;;4.30;;
23838;SDS011;12100;44.384;20.272;2022-08-04T00:51:48;5.28;;;4.22;;
23838;SDS011;12100;44.384;20.272;2022-08-04T01:02:13;8.63;;;5.25;;
23838;SDS011;12100;44.384;20.272;2022-08-04T01:12:48;4.38;;;3.90;;
23838;SDS011;12100;44.384;20.272;2022-08-04T01:15:38;5.82;;;4.03;;
23838;SDS011;12100;44.384;20.272;2022-08-04T01:18:05;4.63;;;4.07;;
23838;SDS011;12100;44.384;20.272;2022-08-04T01:21:20;4.60;;;3.67;;
23838;SDS011;12100;44.384;20.272;2022-08-04T01:29:08;3.90;;;3.58;;
23838;SDS011;12100;44.384;20.272;2022-08-04T01:34:35;7.90;;;4.25;;
23838;SDS011;12100;44.384;20.272;2022-08-04T01:40:12;6.13;;;4.10;;
23838;SDS011;12100;44.384;20.272;2022-08-04T01:42:38;5.65;;;4.30;;
23838;SDS011;12100;44.384;20.272;2022-08-04T01:45:09;5.35;;;3.97;;
23838;SDS011;12100;44.384;20.272;2022-08-04T01:47:37;5.57;;;4.28;;
23838;SDS011;12100;44.384;20.272;2022-08-04T01:50:08;8.18;;;4.28;;
23838;SDS011;12100;44.384;20.272;2022-08-04T01:52:36;8.07;;;4.32;;
23838;SDS011;12100;44.384;20.272;2022-08-04T01:55:03;7.35;;;4.90;;
23838;SDS011;12100;44.384;20.272;2022-08-04T01:57:34;6.30;;;4.32;;
23838;SDS011;12100;44.384;20.272;2022-08-04T02:00:07;7.05;;;4.30;;
23838;SDS011;12100;44.384;20.272;2022-08-04T02:02:34;6.80;;;4.20;;
23838;SDS011;12100;44.384;20.272;2022-08-04T02:05:00;7.28;;;4.40;;
23838;SDS011;12100;44.384;20.272;2022-08-04T02:10:04;5.43;;;3.85;;
23838;SDS011;12100;44.384;20.272;2022-08-04T02:12:37;6.57;;;4.35;;
23838;SDS011;12100;44.384;20.272;2022-08-04T02:20:54;4.22;;;3.80;;
23838;SDS011;12100;44.384;20.272;2022-08-04T02:23:44;6.78;;;3.97;;
23838;SDS011;12100;44.384;20.272;2022-08-04T02:26:17;5.95;;;3.83;;
23838;SDS011;12100;44.384;20.272;2022-08-04T02:31:32;5.35;;;4.25;;
23838;SDS011;12100;44.384;20.272;2022-08-04T02:34:10;4.65;;;4.25;;
23838;SDS011;12100;44.384;20.272;2022-08-04T02:36:51;4.70;;;4.13;;
23838;SDS011;12100;44.384;20.272;2022-08-04T02:39:19;5.57;;;4.38;;
23838;SDS011;12100;44.384;20.272;2022-08-04T02:41:46;5.55;;;4.65;;
23838;SDS011;12100;44.384;20.272;2022-08-04T02:44:13;4.45;;;4.05;;
23838;SDS011;12100;44.384;20.272;2022-08-04T02:46:50;8.95;;;4.25;;
23838;SDS011;12100;44.384;20.272;2022-08-04T02:49:17;5.60;;;4.43;;
23838;SDS011;12100;44.384;20.272;2022-08-04T02:51:46;6.32;;;4.03;;
23838;SDS011;12100;44.384;20.272;2022-08-04T02:54:16;4.85;;;4.40;;
23838;SDS011;12100;44.384;20.272;2022-08-04T02:56:43;5.45;;;4.85;;
23838;SDS011;12100;44.384;20.272;2022-08-04T02:59:10;7.00;;;4.53;;
23838;SDS011;12100;44.384;20.272;2022-08-04T03:01:37;6.95;;;4.75;;
23838;SDS011;12100;44.384;20.272;2022-08-04T03:09:34;6.80;;;4.25;;
23838;SDS011;12100;44.384;20.272;2022-08-04T03:18:32;4.78;;;4.28;;
23838;SDS011;12100;44.384;20.272;2022-08-04T03:26:46;14.25;;;4.80;;
23838;SDS011;12100;44.384;20.272;2022-08-04T03:41:09;5.93;;;4.78;;
23838;SDS011;12100;44.384;20.272;2022-08-04T03:43:58;6.78;;;4.20;;
23838;SDS011;12100;44.384;20.272;2022-08-04T04:00:26;5.13;;;3.88;;
23838;SDS011;12100;44.384;20.272;2022-08-04T04:03:16;5.05;;;3.78;;
23838;SDS011;12100;44.384;20.272;2022-08-04T04:33:55;14.88;;;4.22;;
23838;SDS011;12100;44.384;20.272;2022-08-04T04:36:48;8.73;;;3.45;;
23838;SDS011;12100;44.384;20.272;2022-08-04T04:39:31;6.65;;;3.33;;
23838;SDS011;12100;44.384;20.272;2022-08-04T04:53:28;15.80;;;3.47;;
23838;SDS011;12100;44.384;20.272;2022-08-04T04:56:10;8.57;;;3.38;;
23838;SDS011;12100;44.384;20.272;2022-08-04T04:58:43;21.50;;;4.47;;
23838;SDS011;12100;44.384;20.272;2022-08-04T05:09:25;11.05;;;3.47;;
23838;SDS011;12100;44.384;20.272;2022-08-04T05:14:47;10.63;;;3.30;;
23838;SDS011;12100;44.384;20.272;2022-08-04T05:17:17;10.38;;;3.65;;
23838;SDS011;12100;44.384;20.272;2022-08-04T05:27:50;10.63;;;3.25;;
23838;SDS011;12100;44.384;20.272;2022-08-04T05:30:27;8.40;;;3.55;;
23838;SDS011;12100;44.384;20.272;2022-08-04T05:32:55;14.43;;;3.53;;
23838;SDS011;12100;44.384;20.272;2022-08-04T05:35:26;11.68;;;3.42;;
23838;SDS011;12100;44.384;20.272;2022-08-04T05:37:59;8.55;;;3.22;;
23838;SDS011;12100;44.384;20.272;2022-08-04T05:40:27;9.13;;;3.22;;
23838;SDS011;12100;44.384;20.272;2022-08-04T05:42:54;13.32;;;3.50;;
23838;SDS011;12100;44.384;20.272;2022-08-04T05:45:21;8.65;;;3.33;;
23838;SDS011;12100;44.384;20.272;2022-08-04T05:47:52;4.13;;;2.60;;
23838;SDS011;12100;44.384;20.272;2022-08-04T05:50:19;6.72;;;2.10;;
23838;SDS011;12100;44.384;20.272;2022-08-04T05:52:47;13.15;;;3.50;;
23838;SDS011;12100;44.384;20.272;2022-08-04T05:55:15;10.27;;;2.92;;
23838;SDS011;12100;44.384;20.272;2022-08-04T05:57:49;9.07;;;2.60;;
23838;SDS011;12100;44.384;20.272;2022-08-04T06:00:16;3.92;;;1.95;;
23838;SDS011;12100;44.384;20.272;2022-08-04T06:02:46;13.60;;;2.90;;
23838;SDS011;12100;44.384;20.272;2022-08-04T06:05:16;7.07;;;2.47;;
23838;SDS011;12100;44.384;20.272;2022-08-04T06:07:47;8.68;;;2.22;;
23838;SDS011;12100;44.384;20.272;2022-08-04T06:10:13;5.88;;;1.83;;
23838;SDS011;12100;44.384;20.272;2022-08-04T06:12:45;5.78;;;2.40;;
23838;SDS011;12100;44.384;20.272;2022-08-04T06:15:14;4.53;;;2.20;;
23838;SDS011;12100;44.384;20.272;2022-08-04T06:17:45;4.43;;;2.10;;
23838;SDS011;12100;44.384;20.272;2022-08-04T06:20:19;5.03;;;2.40;;
23838;SDS011;12100;44.384;20.272;2022-08-04T06:22:51;3.58;;;1.80;;
23838;SDS011;12100;44.384;20.272;2022-08-04T06:25:23;11.23;;;2.60;;
23838;SDS011;12100;44.384;20.272;2022-08-04T06:27:52;11.15;;;2.15;;
23838;SDS011;12100;44.384;20.272;2022-08-04T06:30:20;7.82;;;2.92;;
23838;SDS011;12100;44.384;20.272;2022-08-04T06:32:50;12.60;;;2.72;;
23838;SDS011;12100;44.384;20.272;2022-08-04T06:35:21;17.70;;;3.03;;
23838;SDS011;12100;44.384;20.272;2022-08-04T06:37:47;16.27;;;3.22;;
23838;SDS011;12100;44.384;20.272;2022-08-04T06:40:15;11.88;;;2.88;;
23838;SDS011;12100;44.384;20.272;2022-08-04T06:42:43;10.68;;;2.33;;
23838;SDS011;12100;44.384;20.272;2022-08-04T06:45:10;15.15;;;2.75;;
23838;SDS011;12100;44.384;20.272;2022-08-04T06:47:37;8.88;;;2.25;;
23838;SDS011;12100;44.384;20.272;2022-08-04T06:50:05;2.95;;;1.92;;
23838;SDS011;12100;44.384;20.272;2022-08-04T06:52:32;4.57;;;1.92;;
23838;SDS011;12100;44.384;20.272;2022-08-04T06:54:59;3.17;;;1.90;;
23838;SDS011;12100;44.384;20.272;2022-08-04T06:57:26;2.22;;;1.90;;
23838;SDS011;12100;44.384;20.272;2022-08-04T06:59:58;3.63;;;2.33;;
23838;SDS011;12100;44.384;20.272;2022-08-04T07:02:26;3.83;;;1.65;;
23838;SDS011;12100;44.384;20.272;2022-08-04T07:04:55;5.28;;;2.10;;
23838;SDS011;12100;44.384;20.272;2022-08-04T07:07:22;3.53;;;2.25;;
23838;SDS011;12100;44.384;20.272;2022-08-04T07:09:49;3.72;;;1.90;;
23838;SDS011;12100;44.384;20.272;2022-08-04T07:12:16;4.40;;;2.30;;
23838;SDS011;12100;44.384;20.272;2022-08-04T07:14:45;4.00;;;1.80;;
23838;SDS011;12100;44.384;20.272;2022-08-04T07:17:12;2.90;;;2.00;;
23838;SDS011;12100;44.384;20.272;2022-08-04T07:19:40;2.65;;;2.15;;
23838;SDS011;12100;44.384;20.272;2022-08-04T07:22:08;6.72;;;2.15;;
23838;SDS011;12100;44.384;20.272;2022-08-04T07:24:36;2.88;;;2.20;;
23838;SDS011;12100;44.384;20.272;2022-08-04T07:27:03;2.05;;;1.90;;
23838;SDS011;12100;44.384;20.272;2022-08-04T07:29:29;3.08;;;1.95;;
23838;SDS011;12100;44.384;20.272;2022-08-04T07:31:57;4.65;;;2.10;;
23838;SDS011;12100;44.384;20.272;2022-08-04T07:34:24;7.32;;;2.75;;
23838;SDS011;12100;44.384;20.272;2022-08-04T07:36:52;5.32;;;2.05;;
23838;SDS011;12100;44.384;20.272;2022-08-04T07:39:20;3.33;;;1.98;;
23838;SDS011;12100;44.384;20.272;2022-08-04T07:41:47;6.13;;;2.05;;
23838;SDS011;12100;44.384;20.272;2022-08-04T07:44:14;4.32;;;2.58;;
23838;SDS011;12100;44.384;20.272;2022-08-04T07:46:41;2.33;;;2.13;;
23838;SDS011;12100;44.384;20.272;2022-08-04T07:49:09;4.78;;;2.58;;
23838;SDS011;12100;44.384;20.272;2022-08-04T07:51:35;5.13;;;2.20;;
23838;SDS011;12100;44.384;20.272;2022-08-04T07:54:02;4.75;;;3.35;;
23838;SDS011;12100;44.384;20.272;2022-08-04T07:56:29;3.63;;;1.77;;
23838;SDS011;12100;44.384;20.272;2022-08-04T07:58:56;2.42;;;2.00;;
23838;SDS011;12100;44.384;20.272;2022-08-04T08:01:23;4.13;;;2.08;;
23838;SDS011;12100;44.384;20.272;2022-08-04T08:03:50;2.90;;;2.28;;
23838;SDS011;12100;44.384;20.272;2022-08-04T08:06:19;4.75;;;2.38;;
23838;SDS011;12100;44.384;20.272;2022-08-04T08:08:45;2.88;;;2.00;;
23838;SDS011;12100;44.384;20.272;2022-08-04T08:11:11;5.38;;;2.40;;
23838;SDS011;12100;44.384;20.272;2022-08-04T08:13:37;7.55;;;2.30;;
23838;SDS011;12100;44.384;20.272;2022-08-04T08:16:04;3.88;;;2.28;;
23838;SDS011;12100;44.384;20.272;2022-08-04T08:18:30;3.15;;;2.08;;
23838;SDS011;12100;44.384;20.272;2022-08-04T08:20:56;3.20;;;2.28;;
23838;SDS011;12100;44.384;20.272;2022-08-04T08:23:23;3.70;;;2.25;;
23838;SDS011;12100;44.384;20.272;2022-08-04T08:25:50;3.42;;;2.10;;
23838;SDS011;12100;44.384;20.272;2022-08-04T08:28:16;5.35;;;2.42;;
23838;SDS011;12100;44.384;20.272;2022-08-04T08:30:42;3.80;;;2.40;;
23838;SDS011;12100;44.384;20.272;2022-08-04T08:33:09;4.95;;;2.58;;
23838;SDS011;12100;44.384;20.272;2022-08-04T08:35:51;2.75;;;2.47;;
23838;SDS011;12100;44.384;20.272;2022-08-04T08:38:20;5.18;;;2.42;;
23838;SDS011;12100;44.384;20.272;2022-08-04T08:41:09;2.92;;;2.33;;
23838;SDS011;12100;44.384;20.272;2022-08-04T08:54:46;5.72;;;2.40;;
23838;SDS011;12100;44.384;20.272;2022-08-04T09:05:37;3.13;;;2.50;;
23838;SDS011;12100;44.384;20.272;2022-08-04T09:11:19;3.92;;;2.10;;
23838;SDS011;12100;44.384;20.272;2022-08-04T09:14:04;2.97;;;2.20;;
23838;SDS011;12100;44.384;20.272;2022-08-04T09:16:51;4.00;;;2.63;;
23838;SDS011;12100;44.384;20.272;2022-08-04T09:19:28;4.30;;;2.40;;
23838;SDS011;12100;44.384;20.272;2022-08-04T09:30:15;3.58;;;2.33;;
23838;SDS011;12100;44.384;20.272;2022-08-04T09:32:57;3.00;;;2.75;;
23838;SDS011;12100;44.384;20.272;2022-08-04T09:35:47;2.90;;;1.60;;
23838;SDS011;12100;44.384;20.272;2022-08-04T09:38:46;2.80;;;2.08;;
23838;SDS011;12100;44.384;20.272;2022-08-04T09:41:28;2.97;;;1.73;;
23838;SDS011;12100;44.384;20.272;2022-08-04T09:46:49;3.13;;;2.65;;
23838;SDS011;12100;44.384;20.272;2022-08-04T09:55:29;4.72;;;1.90;;
23838;SDS011;12100;44.384;20.272;2022-08-04T09:57:59;5.07;;;2.40;;
23838;SDS011;12100;44.384;20.272;2022-08-04T10:00:41;4.82;;;2.38;;
23838;SDS011;12100;44.384;20.272;2022-08-04T10:03:11;3.53;;;2.33;;
23838;SDS011;12100;44.384;20.272;2022-08-04T10:19:37;3.40;;;2.20;;
23838;SDS011;12100;44.384;20.272;2022-08-04T10:22:19;3.08;;;1.60;;
23838;SDS011;12100;44.384;20.272;2022-08-04T10:27:51;2.28;;;1.52;;
23838;SDS011;12100;44.384;20.272;2022-08-04T10:30:21;6.88;;;1.70;;
23838;SDS011;12100;44.384;20.272;2022-08-04T10:32:52;4.03;;;1.80;;
23838;SDS011;12100;44.384;20.272;2022-08-04T10:35:28;3.63;;;1.88;;
23838;SDS011;12100;44.384;20.272;2022-08-04T10:46:01;2.80;;;1.40;;
23838;SDS011;12100;44.384;20.272;2022-08-04T10:48:50;2.72;;;1.60;;
23838;SDS011;12100;44.384;20.272;2022-08-04T10:54:29;2.78;;;1.85;;
23838;SDS011;12100;44.384;20.272;2022-08-04T10:59:38;2.10;;;1.50;;
23838;SDS011;12100;44.384;20.272;2022-08-04T11:04:58;8.10;;;1.65;;
23838;SDS011;12100;44.384;20.272;2022-08-04T11:07:32;3.47;;;1.35;;
23838;SDS011;12100;44.384;20.272;2022-08-04T11:10:01;1.65;;;1.30;;
23838;SDS011;12100;44.384;20.272;2022-08-04T11:12:27;1.70;;;1.30;;
23838;SDS011;12100;44.384;20.272;2022-08-04T11:15:00;2.13;;;1.55;;
23838;SDS011;12100;44.384;20.272;2022-08-04T11:17:34;3.47;;;1.63;;
23838;SDS011;12100;44.384;20.272;2022-08-04T11:31:39;5.60;;;1.73;;
23838;SDS011;12100;44.384;20.272;2022-08-04T11:36:53;2.17;;;1.70;;
23838;SDS011;12100;44.384;20.272;2022-08-04T11:39:27;3.33;;;1.70;;
23838;SDS011;12100;44.384;20.272;2022-08-04T11:42:21;2.25;;;1.40;;
23838;SDS011;12100;44.384;20.272;2022-08-04T11:47:29;1.60;;;1.50;;
23838;SDS011;12100;44.384;20.272;2022-08-04T11:50:08;3.60;;;1.70;;
23838;SDS011;12100;44.384;20.272;2022-08-04T11:52:39;1.95;;;1.67;;
23838;SDS011;12100;44.384;20.272;2022-08-04T11:55:07;1.30;;;1.20;;
23838;SDS011;12100;44.384;20.272;2022-08-04T11:57:35;1.42;;;1.13;;
23838;SDS011;12100;44.384;20.272;2022-08-04T12:00:06;3.17;;;1.02;;
23838;SDS011;12100;44.384;20.272;2022-08-04T12:05:26;3.08;;;1.13;;
23838;SDS011;12100;44.384;20.272;2022-08-04T12:10:40;1.80;;;1.20;;
23838;SDS011;12100;44.384;20.272;2022-08-04T12:16:19;2.95;;;1.20;;
23838;SDS011;12100;44.384;20.272;2022-08-04T12:18:51;3.15;;;1.30;;
23838;SDS011;12100;44.384;20.272;2022-08-04T12:21:34;1.92;;;1.30;;
23838;SDS011;12100;44.384;20.272;2022-08-04T12:24:15;3.90;;;1.45;;
23838;SDS011;12100;44.384;20.272;2022-08-04T12:26:48;1.40;;;1.30;;
23838;SDS011;12100;44.384;20.272;2022-08-04T12:29:20;1.95;;;1.38;;
23838;SDS011;12100;44.384;20.272;2022-08-04T12:31:48;1.60;;;1.20;;
23838;SDS011;12100;44.384;20.272;2022-08-04T12:34:33;3.20;;;1.00;;
23838;SDS011;12100;44.384;20.272;2022-08-04T12:39:52;1.67;;;1.30;;
23838;SDS011;12100;44.384;20.272;2022-08-04T12:42:23;2.60;;;1.15;;
23838;SDS011;12100;44.384;20.272;2022-08-04T12:44:58;2.05;;;1.45;;
23838;SDS011;12100;44.384;20.272;2022-08-04T12:47:31;1.20;;;1.00;;
23838;SDS011;12100;44.384;20.272;2022-08-04T12:50:00;1.20;;;1.10;;
23838;SDS011;12100;44.384;20.272;2022-08-04T12:52:51;1.73;;;1.30;;
23838;SDS011;12100;44.384;20.272;2022-08-04T12:55:19;1.52;;;1.17;;
23838;SDS011;12100;44.384;20.272;2022-08-04T12:57:48;2.38;;;1.65;;
23838;SDS011;12100;44.384;20.272;2022-08-04T13:00:23;1.58;;;1.40;;
23838;SDS011;12100;44.384;20.272;2022-08-04T13:03:07;1.25;;;1.13;;
23838;SDS011;12100;44.384;20.272;2022-08-04T13:05:36;2.25;;;1.55;;
23838;SDS011;12100;44.384;20.272;2022-08-04T13:08:05;2.85;;;1.73;;
23838;SDS011;12100;44.384;20.272;2022-08-04T13:10:35;3.72;;;1.15;;
23838;SDS011;12100;44.384;20.272;2022-08-04T13:13:11;2.50;;;1.52;;
23838;SDS011;12100;44.384;20.272;2022-08-04T13:15:42;1.80;;;1.38;;
23838;SDS011;12100;44.384;20.272;2022-08-04T13:18:18;1.92;;;1.15;;
23838;SDS011;12100;44.384;20.272;2022-08-04T13:20:45;2.20;;;1.30;;
23838;SDS011;12100;44.384;20.272;2022-08-04T13:23:12;1.60;;;1.50;;
23838;SDS011;12100;44.384;20.272;2022-08-04T13:25:41;2.65;;;1.30;;
23838;SDS011;12100;44.384;20.272;2022-08-04T13:28:19;1.48;;;1.38;;
23838;SDS011;12100;44.384;20.272;2022-08-04T13:30:58;3.63;;;1.58;;
23838;SDS011;12100;44.384;20.272;2022-08-04T13:33:30;4.30;;;1.58;;
23838;SDS011;12100;44.384;20.272;2022-08-04T13:35:58;1.20;;;1.10;;
23838;SDS011;12100;44.384;20.272;2022-08-04T13:38:25;2.72;;;1.30;;
23838;SDS011;12100;44.384;20.272;2022-08-04T13:40:54;1.52;;;1.25;;
23838;SDS011;12100;44.384;20.272;2022-08-04T13:43:26;1.75;;;1.30;;
23838;SDS011;12100;44.384;20.272;2022-08-04T13:45:58;1.40;;;1.30;;
23838;SDS011;12100;44.384;20.272;2022-08-04T13:48:30;1.73;;;1.40;;
23838;SDS011;12100;44.384;20.272;2022-08-04T13:51:05;1.67;;;1.55;;
23838;SDS011;12100;44.384;20.272;2022-08-04T13:53:32;3.33;;;1.58;;
23838;SDS011;12100;44.384;20.272;2022-08-04T13:56:00;1.75;;;1.55;;
23838;SDS011;12100;44.384;20.272;2022-08-04T13:58:38;1.45;;;1.35;;
23838;SDS011;12100;44.384;20.272;2022-08-04T14:01:14;1.70;;;1.42;;
23838;SDS011;12100;44.384;20.272;2022-08-04T14:03:51;2.20;;;1.30;;
23838;SDS011;12100;44.384;20.272;2022-08-04T14:11:44;3.22;;;1.60;;
23838;SDS011;12100;44.384;20.272;2022-08-04T14:22:29;3.97;;;1.70;;
23838;SDS011;12100;44.384;20.272;2022-08-04T14:27:52;4.07;;;1.48;;
23838;SDS011;12100;44.384;20.272;2022-08-04T14:30:27;1.95;;;1.60;;
23838;SDS011;12100;44.384;20.272;2022-08-04T14:33:04;2.05;;;1.67;;
23838;SDS011;12100;44.384;20.272;2022-08-04T14:35:32;2.42;;;1.42;;
23838;SDS011;12100;44.384;20.272;2022-08-04T14:38:03;2.75;;;1.45;;
23838;SDS011;12100;44.384;20.272;2022-08-04T14:40:31;1.70;;;1.35;;
23838;SDS011;12100;44.384;20.272;2022-08-04T14:42:59;2.63;;;1.60;;
23838;SDS011;12100;44.384;20.272;2022-08-04T14:45:29;1.67;;;1.58;;
23838;SDS011;12100;44.384;20.272;2022-08-04T14:47:56;4.82;;;1.77;;
23838;SDS011;12100;44.384;20.272;2022-08-04T14:50:36;5.15;;;1.73;;
23838;SDS011;12100;44.384;20.272;2022-08-04T14:53:05;1.50;;;1.40;;
23838;SDS011;12100;44.384;20.272;2022-08-04T14:55:34;5.07;;;1.73;;
23838;SDS011;12100;44.384;20.272;2022-08-04T14:58:00;3.50;;;1.60;;
23838;SDS011;12100;44.384;20.272;2022-08-04T15:00:30;5.45;;;1.58;;
23838;SDS011;12100;44.384;20.272;2022-08-04T15:03:08;1.50;;;1.40;;
23838;SDS011;12100;44.384;20.272;2022-08-04T15:05:40;2.10;;;1.70;;
23838;SDS011;12100;44.384;20.272;2022-08-04T15:08:07;4.47;;;1.65;;
23838;SDS011;12100;44.384;20.272;2022-08-04T15:10:34;1.75;;;1.65;;
23838;SDS011;12100;44.384;20.272;2022-08-04T15:13:01;3.85;;;1.48;;
23838;SDS011;12100;44.384;20.272;2022-08-04T15:15:27;2.42;;;1.50;;
23838;SDS011;12100;44.384;20.272;2022-08-04T15:17:53;1.80;;;1.50;;
23838;SDS011;12100;44.384;20.272;2022-08-04T15:20:20;1.80;;;1.67;;
23838;SDS011;12100;44.384;20.272;2022-08-04T15:22:47;2.10;;;1.50;;
23838;SDS011;12100;44.384;20.272;2022-08-04T15:25:13;1.80;;;1.70;;
23838;SDS011;12100;44.384;20.272;2022-08-04T15:27:40;2.45;;;2.20;;
23838;SDS011;12100;44.384;20.272;2022-08-04T15:30:09;4.53;;;1.70;;
23838;SDS011;12100;44.384;20.272;2022-08-04T15:32:42;2.10;;;1.90;;
23838;SDS011;12100;44.384;20.272;2022-08-04T15:35:22;1.80;;;1.70;;
23838;SDS011;12100;44.384;20.272;2022-08-04T15:40:38;3.83;;;1.83;;
23838;SDS011;12100;44.384;20.272;2022-08-04T15:45:47;2.03;;;1.70;;
23838;SDS011;12100;44.384;20.272;2022-08-04T15:48:24;2.70;;;1.60;;
23838;SDS011;12100;44.384;20.272;2022-08-04T15:53:26;3.58;;;2.08;;
23838;SDS011;12100;44.384;20.272;2022-08-04T15:55:54;2.13;;;1.97;;
23838;SDS011;12100;44.384;20.272;2022-08-04T15:58:24;3.30;;;1.45;;
23838;SDS011;12100;44.384;20.272;2022-08-04T16:19:06;3.95;;;2.30;;
23838;SDS011;12100;44.384;20.272;2022-08-04T16:21:50;2.53;;;1.95;;
23838;SDS011;12100;44.384;20.272;2022-08-04T16:24:30;4.05;;;1.73;;
23838;SDS011;12100;44.384;20.272;2022-08-04T16:27:01;2.00;;;1.88;;
23838;SDS011;12100;44.384;20.272;2022-08-04T16:29:37;3.25;;;1.90;;
23838;SDS011;12100;44.384;20.272;2022-08-04T16:34:38;2.80;;;1.95;;
23838;SDS011;12100;44.384;20.272;2022-08-04T16:37:07;5.32;;;2.35;;
23838;SDS011;12100;44.384;20.272;2022-08-04T16:39:35;3.30;;;1.88;;
23838;SDS011;12100;44.384;20.272;2022-08-04T16:50:15;6.18;;;2.10;;
23838;SDS011;12100;44.384;20.272;2022-08-04T16:52:48;3.72;;;2.38;;
23838;SDS011;12100;44.384;20.272;2022-08-04T16:55:22;3.25;;;1.83;;
23838;SDS011;12100;44.384;20.272;2022-08-04T16:57:50;2.60;;;1.85;;
23838;SDS011;12100;44.384;20.272;2022-08-04T17:00:26;6.57;;;2.20;;
23838;SDS011;12100;44.384;20.272;2022-08-04T17:03:00;2.42;;;2.17;;
23838;SDS011;12100;44.384;20.272;2022-08-04T17:05:27;4.30;;;2.33;;
23838;SDS011;12100;44.384;20.272;2022-08-04T17:07:54;4.60;;;2.38;;
23838;SDS011;12100;44.384;20.272;2022-08-04T17:10:34;4.40;;;2.25;;
23838;SDS011;12100;44.384;20.272;2022-08-04T17:15:49;2.70;;;2.30;;
23838;SDS011;12100;44.384;20.272;2022-08-04T17:18:18;6.07;;;2.38;;
23838;SDS011;12100;44.384;20.272;2022-08-04T17:20:46;4.28;;;2.33;;
23838;SDS011;12100;44.384;20.272;2022-08-04T17:25:53;4.60;;;2.90;;
23838;SDS011;12100;44.384;20.272;2022-08-04T17:28:20;11.00;;;2.85;;
23838;SDS011;12100;44.384;20.272;2022-08-04T17:30:47;13.98;;;4.07;;
23838;SDS011;12100;44.384;20.272;2022-08-04T17:33:14;4.88;;;2.85;;
23838;SDS011;12100;44.384;20.272;2022-08-04T17:35:42;7.38;;;3.08;;
23838;SDS011;12100;44.384;20.272;2022-08-04T17:38:08;6.05;;;2.83;;
23838;SDS011;12100;44.384;20.272;2022-08-04T17:40:48;6.22;;;3.10;;
23838;SDS011;12100;44.384;20.272;2022-08-04T17:43:14;10.75;;;2.40;;
23838;SDS011;12100;44.384;20.272;2022-08-04T17:45:40;6.05;;;3.20;;
23838;SDS011;12100;44.384;20.272;2022-08-04T17:48:07;7.40;;;2.97;;
23838;SDS011;12100;44.384;20.272;2022-08-04T17:50:33;9.98;;;3.25;;
23838;SDS011;12100;44.384;20.272;2022-08-04T17:53:05;11.80;;;4.03;;
23838;SDS011;12100;44.384;20.272;2022-08-04T17:58:18;10.25;;;4.30;;
23838;SDS011;12100;44.384;20.272;2022-08-04T18:00:47;17.98;;;4.25;;
23838;SDS011;12100;44.384;20.272;2022-08-04T18:03:25;24.88;;;3.97;;
23838;SDS011;12100;44.384;20.272;2022-08-04T18:05:52;26.10;;;3.97;;
23838;SDS011;12100;44.384;20.272;2022-08-04T18:08:22;22.50;;;3.47;;
23838;SDS011;12100;44.384;20.272;2022-08-04T18:10:50;15.85;;;3.63;;
23838;SDS011;12100;44.384;20.272;2022-08-04T18:13:16;13.88;;;4.38;;
23838;SDS011;12100;44.384;20.272;2022-08-04T18:15:42;8.63;;;4.13;;
23838;SDS011;12100;44.384;20.272;2022-08-04T18:18:15;7.22;;;3.63;;
23838;SDS011;12100;44.384;20.272;2022-08-04T18:20:42;10.05;;;3.63;;
23838;SDS011;12100;44.384;20.272;2022-08-04T18:23:08;14.70;;;3.58;;
23838;SDS011;12100;44.384;20.272;2022-08-04T18:25:35;16.45;;;4.53;;
23838;SDS011;12100;44.384;20.272;2022-08-04T18:28:04;9.63;;;3.30;;
23838;SDS011;12100;44.384;20.272;2022-08-04T18:30:33;15.63;;;4.25;;
23838;SDS011;12100;44.384;20.272;2022-08-04T18:32:59;13.05;;;3.80;;
23838;SDS011;12100;44.384;20.272;2022-08-04T18:35:26;10.93;;;3.35;;
23838;SDS011;12100;44.384;20.272;2022-08-04T18:37:52;10.25;;;3.55;;
23838;SDS011;12100;44.384;20.272;2022-08-04T18:40:18;3.47;;;2.40;;
23838;SDS011;12100;44.384;20.272;2022-08-04T18:42:44;9.73;;;3.08;;
23838;SDS011;12100;44.384;20.272;2022-08-04T18:45:11;5.30;;;2.58;;
23838;SDS011;12100;44.384;20.272;2022-08-04T18:47:37;6.25;;;3.22;;
23838;SDS011;12100;44.384;20.272;2022-08-04T18:50:04;9.43;;;3.25;;
23838;SDS011;12100;44.384;20.272;2022-08-04T18:52:30;5.30;;;2.85;;
23838;SDS011;12100;44.384;20.272;2022-08-04T18:54:57;5.60;;;3.05;;
23838;SDS011;12100;44.384;20.272;2022-08-04T18:57:24;6.45;;;3.88;;
23838;SDS011;12100;44.384;20.272;2022-08-04T18:59:54;7.88;;;5.10;;
23838;SDS011;12100;44.384;20.272;2022-08-04T19:02:21;4.07;;;3.25;;
23838;SDS011;12100;44.384;20.272;2022-08-04T19:04:47;5.00;;;2.95;;
23838;SDS011;12100;44.384;20.272;2022-08-04T19:07:14;6.10;;;2.55;;
23838;SDS011;12100;44.384;20.272;2022-08-04T19:09:41;4.15;;;2.47;;
23838;SDS011;12100;44.384;20.272;2022-08-04T19:12:07;4.88;;;2.67;;
23838;SDS011;12100;44.384;20.272;2022-08-04T19:14:33;6.85;;;2.80;;
23838;SDS011;12100;44.384;20.272;2022-08-04T19:17:00;5.40;;;3.00;;
23838;SDS011;12100;44.384;20.272;2022-08-04T19:19:26;9.52;;;2.95;;
23838;SDS011;12100;44.384;20.272;2022-08-04T19:21:52;7.63;;;2.90;;
23838;SDS011;12100;44.384;20.272;2022-08-04T19:24:18;6.20;;;2.53;;
23838;SDS011;12100;44.384;20.272;2022-08-04T19:26:44;9.63;;;3.72;;
23838;SDS011;12100;44.384;20.272;2022-08-04T19:29:11;7.07;;;3.00;;
23838;SDS011;12100;44.384;20.272;2022-08-04T19:31:39;9.25;;;3.25;;
23838;SDS011;12100;44.384;20.272;2022-08-04T19:34:05;7.05;;;3.13;;
23838;SDS011;12100;44.384;20.272;2022-08-04T19:36:31;11.52;;;3.60;;
23838;SDS011;12100;44.384;20.272;2022-08-04T19:38:58;6.47;;;3.17;;
23838;SDS011;12100;44.384;20.272;2022-08-04T19:41:25;12.70;;;2.78;;
23838;SDS011;12100;44.384;20.272;2022-08-04T19:43:51;5.22;;;2.63;;
23838;SDS011;12100;44.384;20.272;2022-08-04T19:46:18;9.40;;;3.30;;
23838;SDS011;12100;44.384;20.272;2022-08-04T19:48:45;7.47;;;2.95;;
23838;SDS011;12100;44.384;20.272;2022-08-04T19:51:11;7.95;;;3.17;;
23838;SDS011;12100;44.384;20.272;2022-08-04T19:53:37;6.93;;;2.60;;
23838;SDS011;12100;44.384;20.272;2022-08-04T19:56:04;11.52;;;2.72;;
23838;SDS011;12100;44.384;20.272;2022-08-04T19:58:30;10.45;;;3.47;;
23838;SDS011;12100;44.384;20.272;2022-08-04T20:00:56;16.08;;;3.63;;
23838;SDS011;12100;44.384;20.272;2022-08-04T20:03:22;9.25;;;2.92;;
23838;SDS011;12100;44.384;20.272;2022-08-04T20:05:48;5.95;;;2.80;;
23838;SDS011;12100;44.384;20.272;2022-08-04T20:08:15;7.68;;;3.10;;